Flight Track Log - Related Links

Times and Time Zones

All times are in EDT time to prevent confusion due to time zone crossing. See the VNR160 flight status page for this flight to view local times or setup timezone preferences in your user account.

Time Position Orientation Groundspeed Altitude Reporting Facility
EDT Latitude Longitude Course Direction KTS MPH feet Rate Location/Type
Mon 06:15:12 PM 30.0500 -95.5525 245° Southwest 135 155 700  Level Houston Center
Mon 06:16:01 PM 30.0311 -95.5983 245° Southwest 211 243 1,800 709 Climbing Houston Center
Mon 06:17:02 PM 30.0806 -95.6358 327° Northwest 239 275 2,000 93 Climbing Houston Center
Mon 06:18:10 PM 30.1456 -95.6458 352° North 231 266 2,000 369 Level Houston Center
Mon 06:19:12 PM 30.1967 -95.6294 15° North 211 243 2,800 923 Climbing Houston Center
Mon 06:20:07 PM 30.2328 -95.5792 50° Northeast 204 235 3,800 1,355 Climbing Houston Center
Mon 06:21:16 PM 30.2708 -95.5267 50° Northeast 217 250 5,600 2,015 Climbing Houston Center
Mon 06:22:18 PM 30.3178 -95.4589 51° Northeast 225 259 8,200 2,348 Climbing Houston Center
Mon 06:23:11 PM 30.3558 -95.4047 51° Northeast 231 266 10,100 1,403 Climbing Houston Center
Mon 06:24:22 PM 30.4047 -95.3383 49° Northeast 255 293 11,100 586 Climbing Houston Center
Mon 06:25:24 PM 30.4631 -95.2525 52° Northeast 297 342 11,400 774 Climbing Houston Center
Mon 06:26:26 PM 30.5153 -95.1800 50° Northeast 295 339 12,700 1,355 Climbing Houston Center
Mon 06:27:28 PM 30.5661 -95.1089 50° Northeast 289 333 14,200 1,452 Climbing Houston Center
Mon 06:28:30 PM 30.6244 -95.0531 39° Northeast 276 318 15,700 1,452 Climbing Houston Center
Mon 06:29:32 PM 30.6919 -95.0117 28° Northeast 271 312 17,200 1,113 Climbing Houston Center
Mon 06:30:34 PM 30.7603 -94.9689 28° Northeast 279 321 18,000 387 Climbing Houston Center
Mon 06:31:36 PM 30.8533 -94.9108 28° Northeast 314 361 18,000 677 Level Houston Center
Mon 06:32:38 PM 30.9297 -94.8617 29° Northeast 312 359 19,400 1,403 Climbing Houston Center
Mon 06:33:40 PM 31.0022 -94.8175 28° Northeast 295 339 20,900 1,500 Climbing Houston Center
Mon 06:34:18 PM 31.0422 -94.7925 28° Northeast 293 337 21,900 1,714 Climbing Fort Worth Center
Mon 06:35:18 PM 31.1058 -94.7494 30° Northeast 287 330 23,700 1,686 Climbing Fort Worth Center
Mon 06:36:19 PM 31.1864 -94.7011 27° Northeast 281 323 25,300 1,587 Climbing Fort Worth Center
Mon 06:37:19 PM 31.2542 -94.6553 30° Northeast 281 323 26,900 850 Climbing Fort Worth Center
Mon 06:38:19 PM 31.3261 -94.6044 31° Northeast 286 329 27,000 50 Climbing Fort Worth Center
Mon 06:39:19 PM 31.4125 -94.5436 31° Northeast 314 361 27,000  Level Fort Worth Center
Mon 06:40:18 PM 31.4989 -94.4847 30° Northeast 341 392 27,000 454 Level Fort Worth Center
Mon 06:41:18 PM 31.5831 -94.4261 31° Northeast 351 404 27,900 942 Climbing Fort Worth Center
Mon 06:42:19 PM 31.6653 -94.3697 30° Northeast 346 398 28,900 1,000 Climbing Fort Worth Center
Mon 06:43:18 PM 31.7453 -94.3133 31° Northeast 340 391 29,900 1,008 Climbing Fort Worth Center
Mon 06:44:18 PM 31.8231 -94.2594 30° Northeast 328 377 30,900 942 Climbing Fort Worth Center
Mon 06:45:19 PM 31.8931 -94.2106 31° Northeast 328 377 31,800 750 Climbing Fort Worth Center
Mon 06:46:18 PM 31.9728 -94.1539 31° Northeast 323 372 32,400 605 Climbing Fort Worth Center
Mon 06:47:18 PM 32.0528 -94.0994 30° Northeast 328 377 33,000 300 Climbing Fort Worth Center
Mon 06:48:18 PM 32.1369 -94.0400 31° Northeast 334 384 33,000  Level Fort Worth Center
Mon 06:49:18 PM 32.2247 -93.9706 34° Northeast 346 398 33,000  Level Fort Worth Center
Mon 06:50:19 PM 32.3128 -93.9106 30° Northeast 360 414 33,000  Level Fort Worth Center
Mon 06:51:19 PM 32.4028 -93.8433 32° Northeast 365 420 33,000  Level Fort Worth Center
Mon 06:52:19 PM 32.4928 -93.7806 30° Northeast 370 426 33,000  Level Fort Worth Center
Mon 06:53:18 PM 32.5828 -93.7153 31° Northeast 370 426 33,000  Level Fort Worth Center
Mon 06:54:19 PM 32.6728 -93.6522 31° Northeast 370 426 33,000  Level Fort Worth Center
Mon 06:55:18 PM 32.7647 -93.5892 30° Northeast 370 426 33,000  Level Fort Worth Center
Mon 06:56:18 PM 32.8528 -93.5261 31° Northeast 370 426 33,000  Level Fort Worth Center
Mon 06:57:19 PM 32.9444 -93.4578 32° Northeast 370 426 33,000  Level Fort Worth Center
Mon 06:58:19 PM 33.0344 -93.3969 30° Northeast 370 426 33,000  Level Fort Worth Center
Mon 06:59:19 PM 33.1219 -93.3308 32° Northeast 370 426 33,000  Level Fort Worth Center
Mon 07:01:46 PM 33.3417 -93.1747 31° Northeast 381 438 33,000  Level Memphis Center
Mon 07:02:46 PM 33.4286 -93.1103 32° Northeast 376 433 33,000  Level Memphis Center
Mon 07:03:46 PM 33.5158 -93.0431 33° Northeast 371 427 33,000  Level Memphis Center
Mon 07:04:46 PM 33.6067 -92.9811 30° Northeast 366 421 33,000  Level Memphis Center
Mon 07:05:46 PM 33.6958 -92.9189 30° Northeast 366 421 33,000  Level Memphis Center
Mon 07:06:46 PM 33.7847 -92.8514 32° Northeast 366 421 33,000  Level Memphis Center
Mon 07:07:46 PM 33.8736 -92.7864 31° Northeast 366 421 33,000  Level Memphis Center
Mon 07:08:46 PM 33.9647 -92.7214 31° Northeast 372 428 33,000  Level Memphis Center
Mon 07:09:46 PM 34.0536 -92.6561 31° Northeast 367 422 33,000  Level Memphis Center
Mon 07:10:46 PM 34.1383 -92.5856 35° Northeast 367 422 33,000  Level Memphis Center
Mon 07:11:46 PM 34.2250 -92.5225 31° Northeast 367 422 33,000  Level Memphis Center
Mon 07:12:46 PM 34.3139 -92.4544 32° Northeast 367 422 33,000  Level Memphis Center
Mon 07:13:46 PM 34.3983 -92.3886 33° Northeast 367 422 33,000  Level Memphis Center
Mon 07:14:46 PM 34.4869 -92.3225 32° Northeast 367 422 33,000  Level Memphis Center
Mon 07:15:46 PM 34.5842 -92.2542 30° Northeast 367 422 33,000  Level Memphis Center
Mon 07:16:46 PM 34.6725 -92.2056 24° Northeast 359 413 33,000  Level Memphis Center
Mon 07:17:46 PM 34.7578 -92.2150 355° North 308 354 33,000  Level Memphis Center
Mon 07:18:46 PM 34.8386 -92.2472 342° North 302 348 33,000  Level Memphis Center
Mon 07:19:46 PM 34.9175 -92.2819 340° North 302 348 33,000 -150 Level Memphis Center
Mon 07:20:46 PM 34.9961 -92.3142 341° North 302 348 32,700 -500 Descending Memphis Center
Mon 07:21:46 PM 35.0833 -92.3492 342° North 308 354 32,000 -350 Descending Memphis Center
Mon 07:22:46 PM 35.1642 -92.3814 342° North 313 360 32,000  Level Memphis Center
Mon 07:23:46 PM 35.2469 -92.4164 341° North 313 360 32,000  Level Memphis Center
Mon 07:24:46 PM 35.3278 -92.4517 340° North 307 353 32,000  Level Memphis Center
Mon 07:25:46 PM 35.4106 -92.4867 341° North 307 353 32,000  Level Memphis Center
Mon 07:26:46 PM 35.4914 -92.5219 340° North 307 353 32,000  Level Memphis Center
Mon 07:27:46 PM 35.5722 -92.5572 340° North 307 353 32,000  Level Memphis Center
Mon 07:28:46 PM 35.6550 -92.5900 342° North 307 353 32,000  Level Memphis Center
Mon 07:29:46 PM 35.7356 -92.6256 340° North 307 353 32,000  Level Memphis Center
Mon 07:30:46 PM 35.8142 -92.6583 341° North 307 353 32,000  Level Memphis Center
Mon 07:31:46 PM 35.8950 -92.6939 340° North 307 353 32,000  Level Memphis Center
Mon 07:32:46 PM 35.9756 -92.7294 340° North 307 353 32,000  Level Memphis Center
Mon 07:33:46 PM 36.0561 -92.7653 340° North 307 353 32,000  Level Memphis Center
Mon 07:34:46 PM 36.1369 -92.8011 340° North 307 353 32,000  Level Memphis Center
Mon 07:35:46 PM 36.2175 -92.8369 340° North 307 353 32,000  Level Memphis Center
Mon 07:36:46 PM 36.2981 -92.8703 342° North 307 353 32,000  Level Memphis Center
Mon 07:37:46 PM 36.3786 -92.9089 339° North 307 353 32,000  Level Memphis Center
Mon 07:39:30 PM 36.5072 -92.9642 341° North 313 360 32,000  Level Kansas City Center
Mon 07:40:33 PM 36.6014 -93.0044 341° North 312 359 32,000  Level Kansas City Center
Mon 07:41:33 PM 36.6844 -93.0406 341° North 313 360 32,000  Level Kansas City Center
Mon 07:42:37 PM 36.7661 -93.0769 340° North 310 357 32,000  Level Kansas City Center
Mon 07:43:38 PM 36.8519 -93.1139 341° North 313 360 32,000  Level Kansas City Center
Mon 07:44:38 PM 36.9317 -93.1472 342° North 312 359 32,000  Level Kansas City Center
Mon 07:45:41 PM 37.0297 -93.1922 340° North 310 357 32,000  Level Kansas City Center
Mon 07:46:42 PM 37.1122 -93.2281 341° North 311 358 32,000  Level Kansas City Center
Mon 07:47:43 PM 37.1947 -93.2642 341° North 312 359 32,000  Level Kansas City Center
Mon 07:48:43 PM 37.2767 -93.2997 341° North 311 358 32,000  Level Kansas City Center
Mon 07:49:47 PM 37.3642 -93.3256 347° North 320 368 32,000  Level Kansas City Center
Mon 07:50:47 PM 37.4592 -93.3000 12° North 345 397 32,000  Level Kansas City Center
Mon 07:51:51 PM 37.5564 -93.2681 15° North 357 411 32,000  Level Kansas City Center
Mon 07:52:53 PM 37.6528 -93.2367 14° North 356 410 32,000  Level Kansas City Center
Mon 07:53:54 PM 37.7478 -93.2028 16° North 353 406 32,000  Level Kansas City Center
Mon 07:54:55 PM 37.8431 -93.1703 15° North 353 406 32,000  Level Kansas City Center
Mon 07:55:56 PM 37.9397 -93.1369 15° North 355 409 32,000  Level Kansas City Center
Mon 07:56:57 PM 38.0561 -93.0983 15° North 356 410 32,000  Level Kansas City Center
Mon 07:57:58 PM 38.1553 -93.0631 16° North 362 417 32,000  Level Kansas City Center
Mon 07:58:59 PM 38.2522 -93.0303 15° North 360 414 32,000  Level Kansas City Center
Mon 08:00:03 PM 38.3483 -92.9981 15° North 357 411 32,000  Level Kansas City Center
Mon 08:01:04 PM 38.4442 -92.9656 15° North 355 409 32,000  Level Kansas City Center
Mon 08:02:05 PM 38.5414 -92.9319 15° North 356 410 32,000  Level Kansas City Center
Mon 08:03:05 PM 38.6411 -92.8961 16° North 364 419 32,000  Level Kansas City Center
Mon 08:04:08 PM 38.7408 -92.8614 15° North 367 422 32,000  Level Kansas City Center
Mon 08:05:09 PM 38.8422 -92.8267 15° North 372 428 32,000  Level Kansas City Center
Mon 08:06:09 PM 38.9447 -92.7900 16° North 378 435 32,000  Level Kansas City Center
Mon 08:07:11 PM 39.0589 -92.7492 16° North 382 440 32,000  Level Kansas City Center
Mon 08:08:15 PM 39.1517 -92.7169 15° North 383 441 32,000  Level Kansas City Center
Mon 08:09:14 PM 39.2658 -92.6758 16° North 390 449 32,000  Level Kansas City Center
Mon 08:10:17 PM 39.3711 -92.6375 16° North 394 453 32,000  Level Kansas City Center
Mon 08:11:18 PM 39.4778 -92.6017 15° North 397 457 32,000  Level Kansas City Center
Mon 08:12:19 PM 39.6061 -92.5542 16° North 401 461 32,000  Level Kansas City Center
Mon 08:13:23 PM 39.7125 -92.5167 15° North 400 460 32,000  Level Kansas City Center
Mon 08:14:24 PM 39.8211 -92.4800 15° North 404 465 32,000  Level Kansas City Center
Mon 08:15:24 PM 39.9294 -92.4389 16° North 407 468 32,000  Level Kansas City Center
Mon 08:16:26 PM 40.0383 -92.4008 15° North 409 471 32,000 -48 Level Kansas City Center
Mon 08:17:28 PM 40.1533 -92.3600 15° North 407 468 31,900 -639 Descending Kansas City Center
Mon 08:18:28 PM 40.2753 -92.3133 16° North 413 475 30,700 -1,041 Descending Kansas City Center
Mon 08:19:29 PM 40.3858 -92.2736 15° North 419 482 29,800 -816 Descending Kansas City Center
Mon 08:20:33 PM 40.4964 -92.2333 15° North 420 483 29,000 -571 Descending Kansas City Center
Mon 08:21:35 PM 40.6056 -92.1939 15° North 415 478 28,600 -750 Descending Kansas City Center
Mon 08:22:09 PM 40.6717 -92.1692 16° North 414 476 27,800 -1,389 Descending Chicago Center
Mon 08:23:10 PM 40.8025 -92.1211 16° North 411 473 26,400 -1,366 Descending Chicago Center
Mon 08:24:12 PM 40.9069 -92.0825 16° North 395 455 25,000 -1,403 Descending Chicago Center
Mon 08:25:14 PM 41.0119 -92.0439 16° North 395 455 23,500 -1,452 Descending Chicago Center
Mon 08:26:16 PM 41.1139 -92.0053 16° North 386 444 22,000 -1,500 Descending Chicago Center
Mon 08:27:18 PM 41.2117 -91.9675 16° North 372 428 20,400 -1,610 Descending Chicago Center
Mon 08:28:19 PM 41.3108 -91.9297 16° North 363 418 18,700 -1,659 Descending Chicago Center
Mon 08:29:21 PM 41.4033 -91.8969 15° North 348 400 17,000 -1,887 Descending Chicago Center
Mon 08:30:23 PM 41.5122 -91.8525 17° North 344 396 14,800 -2,032 Descending Chicago Center
Mon 08:31:25 PM 41.6022 -91.8464 North 330 380 12,800 -2,081 Descending Chicago Center
Mon 08:32:27 PM 41.6861 -91.8714 347° North 309 356 10,500 -2,244 Descending Chicago Center
Mon 08:33:28 PM 41.7611 -91.8881 351° North 279 321 8,200 -2,488 Descending Chicago Center
Mon 08:34:30 PM 41.8314 -91.9111 346° North 266 306 5,400 -2,274 Descending Chicago Center
Mon 08:35:32 PM 41.9042 -91.9106 360° North 234 269 3,500 -1,355 Descending Chicago Center
Mon 08:36:34 PM 41.8969 -91.8469 99° East 194 223 2,600 -677 Descending Chicago Center
Mon 08:37:36 PM 41.9164 -91.7944 64° Northeast 175 201 2,100 -537 Descending Chicago Center
Mon 08:38:37 PM 41.9153 -91.7431 92° East 157 181 1,500 -537 Descending Chicago Center
Mon 08:39:39 PM 41.8900 -91.7106 136° Southeast 137 158 1,000 -484 Descending Chicago Center

Login

Don't have an account? Register now (free) for customized features, flight alerts, and more!